Pagrindinis puslapis
METAR-TAF:

METAR-TAF

Oro uostai :

Teheranas, Iranas

platuma: 35-41N, ilguma: 051-21E, Aukštis: 1204 m

Dabartinis oras

Ataskaita buvo paskelbta 36 minutes, ne 20:30 UTC
Vėjas 6 kt iš Vakarų
Temperatūra 6°C
Drėgmė 49%
Slėgis 1018 hPa
Matomumas 10 km arba daugiau
nėra debesų žemiau 1500 m ir nėra kamuolinių lietaus debesų

METAR: OIII 092030Z 28006KT CAVOK 06/M04 Q1018 A3007

Laikas: 00:36 (21:06 UTC)

Prognozė

Ataskaita buvo paskelbta 3 valandos ir 16 minutes, ne 17:50 UTC
Prognozė galioja nuo 09 metu 18 UTC su 10 metu 24 UTC
Vėjas 10 kt iš Vakarų/Šiaurės Vakarų
Matomumas: 7000 m
Laikinai
nuo 09 metu 21 UTC su 10 metu 03 UTC
Mažai debesys ne aukštis 3500 ft
Išsisklaidę debesys ne aukštis 10000 ft
Tapsmas
nuo 10 metu 21 UTC su 10 metu 23 UTC
Mažai debesys ne aukštis 3500 ft
Išsisklaidę debesys ne aukštis 10000 ft

TAF: OIII 091750Z 0918/1024 30010KT 7000 NSC TEMPO 0921/1003 FEW035 SCT100 BECMG 1021/1023 FEW035 SCT100

Orai ataskaitas ir orų prognozės (METAR, TAF).

turimą stotys yra geltonos ir raudonos taškus žemėlapyje.

Perkelti pele per norėdami pamatyti stoties vardą.

Tada spustelėkite, norėdami matyti oro stebėjimo ir prognozės.

Norėdami pakeisti žemėlapį: spustelėkite ant žalios mygtukų su juodo kryžiaus žemyn,; žalią mygtuką su brūkšneliu, jei norite nutolinti; arba žalių rodyklių gretimoms žemėlapius.


METAR-TAF: